Terminal Aerodrome Forecast
Issued by NWS Brownsville, TX

Home | Current Version | Previous Version | Text Only | Print | Product List | Glossary On
Versions: 1 2 3 4 5 6 7 8 9 10 11 12 13 14 15
861
FTUS44 KBRO 242340
TAFMFE
TAF
KMFE 242340Z 2500/2524 14015KT P6SM FEW050
     FM250200 13010KT P6SM SKC
     FM250600 14007KT P6SM SCT025 SCT300
     FM251400 15010G16KT P6SM FEW040 SCT300=

USA.gov is the U.S. government's official web portal to all federal, state and local government web resources and services.